Time;durP1;ratioP1;P1;durP2;ratioP2;P2;SDS_P1;SDS_P2;PMS_P1;PMS_P2;Temp;Humidity;BMP_temperature;BMP_pressure;BME280_temperature;BME280_humidity;BME280_pressure;Samples;Min_cycle;Max_cycle;Signal;HPM_P1;HPM_P2
2024/02/01 00:00:57;;;;;;;7.10;3.97;;;;;;;;;;5081469;28;20247;-77
2024/02/01 00:03:23;;;;;;;7.63;4.40;;;;;;;;;;5080667;28;20419;-77
2024/02/01 00:05:49;;;;;;;8.48;4.60;;;;;;;;;;5080286;28;20434;-77
2024/02/01 00:08:15;;;;;;;8.70;4.47;;;;;;;;;;5080584;28;20235;-77
2024/02/01 00:10:41;;;;;;;7.70;4.13;;;;;;;;;;5081207;28;20414;-77
2024/02/01 00:13:07;;;;;;;6.20;4.70;;;;;;;;;;5081306;28;20513;-77
2024/02/01 00:15:33;;;;;;;12.50;4.70;;;;;;;;;;5080353;28;20438;-76
2024/02/01 00:17:59;;;;;;;7.17;4.73;;;;;;;;;;5080040;28;20205;-77
2024/02/01 00:20:25;;;;;;;7.05;5.13;;;;;;;;;;5080662;28;20399;-77
2024/02/01 00:22:52;;;;;;;7.27;4.40;;;;;;;;;;5081035;28;20655;-77
2024/02/01 00:25:18;;;;;;;7.60;5.57;;;;;;;;;;5080369;28;20427;-77
2024/02/01 00:27:44;;;;;;;6.68;4.82;;;;;;;;;;5081554;28;20201;-77
2024/02/01 00:30:10;;;;;;;9.23;5.22;;;;;;;;;;5080912;28;20526;-77
2024/02/01 00:32:36;;;;;;;8.98;5.13;;;;;;;;;;5081153;28;20205;-76
2024/02/01 00:35:02;;;;;;;8.70;5.17;;;;;;;;;;5080105;28;20181;-77
2024/02/01 00:37:28;;;;;;;8.35;4.88;;;;;;;;;;5080417;28;20441;-75
2024/02/01 00:39:54;;;;;;;13.25;5.85;;;;;;;;;;5080987;28;20696;-76
2024/02/01 00:42:20;;;;;;;7.60;5.13;;;;;;;;;;5080023;28;20205;-76
2024/02/01 00:44:46;;;;;;;8.70;4.53;;;;;;;;;;5079815;28;20798;-76
2024/02/01 00:47:12;;;;;;;5.63;4.97;;;;;;;;;;5081138;28;20212;-76
2024/02/01 00:49:38;;;;;;;22.70;5.67;;;;;;;;;;5081503;28;20910;-76
2024/02/01 00:52:04;;;;;;;9.00;4.40;;;;;;;;;;5081441;28;20415;-76
2024/02/01 00:54:30;;;;;;;9.90;5.28;;;;;;;;;;5079839;28;20177;-77
2024/02/01 00:56:56;;;;;;;9.57;5.13;;;;;;;;;;5079618;28;20200;-78
2024/02/01 00:59:22;;;;;;;6.90;4.60;;;;;;;;;;5078433;28;20215;-78
2024/02/01 01:01:48;;;;;;;9.23;5.87;;;;;;;;;;5078859;28;20400;-80
2024/02/01 01:04:17;;;;;;;7.30;4.93;;;;;;;;;;5079357;28;20407;-80
2024/02/01 01:06:44;;;;;;;5.10;4.43;;;;;;;;;;5060998;28;20446;-78
2024/02/01 01:09:10;;;;;;;8.32;4.63;;;;;;;;;;5078689;28;20180;-82
2024/02/01 01:11:37;;;;;;;7.82;4.63;;;;;;;;;;5079281;28;20577;-78
2024/02/01 01:14:03;;;;;;;8.30;5.38;;;;;;;;;;5079453;28;20529;-78
2024/02/01 01:16:29;;;;;;;8.43;4.65;;;;;;;;;;5078641;28;20636;-80
2024/02/01 01:18:55;;;;;;;8.80;5.95;;;;;;;;;;5079222;28;20201;-78
2024/02/01 01:21:21;;;;;;;11.43;6.43;;;;;;;;;;5077926;28;20177;-78
2024/02/01 01:23:47;;;;;;;11.10;6.37;;;;;;;;;;5079291;28;20422;-80
2024/02/01 01:26:13;;;;;;;8.23;5.53;;;;;;;;;;5077187;28;20478;-81
2024/02/01 01:28:39;;;;;;;15.20;6.10;;;;;;;;;;5078057;28;20926;-78
2024/02/01 01:31:05;;;;;;;10.10;5.87;;;;;;;;;;5060639;28;20472;-78
2024/02/01 01:33:30;;;;;;;17.70;6.07;;;;;;;;;;5077878;28;20434;-79
2024/02/01 01:35:56;;;;;;;9.10;6.73;;;;;;;;;;5077559;28;20208;-78
2024/02/01 01:38:22;;;;;;;8.50;6.53;;;;;;;;;;5078362;28;20540;-80
2024/02/01 01:40:49;;;;;;;13.30;7.53;;;;;;;;;;5077460;28;20399;-80
2024/02/01 01:43:15;;;;;;;13.15;8.25;;;;;;;;;;5077145;28;20177;-79
2024/02/01 01:45:40;;;;;;;15.07;6.80;;;;;;;;;;5076761;28;20191;-78
2024/02/01 01:48:07;;;;;;;11.90;6.90;;;;;;;;;;5078085;28;20404;-78
2024/02/01 01:50:33;;;;;;;10.85;7.60;;;;;;;;;;5078068;28;20498;-79
2024/02/01 01:53:00;;;;;;;15.07;7.80;;;;;;;;;;5077603;28;20181;-80
2024/02/01 01:55:26;;;;;;;8.63;6.30;;;;;;;;;;5076361;28;20196;-82
2024/02/01 01:57:52;;;;;;;12.52;9.15;;;;;;;;;;5058063;28;20201;-78
2024/02/01 02:00:19;;;;;;;10.73;7.07;;;;;;;;;;5058213;28;20184;-79
2024/02/01 02:02:45;;;;;;;11.70;8.15;;;;;;;;;;5057817;28;20169;-79
2024/02/01 02:05:11;;;;;;;13.07;7.20;;;;;;;;;;5073600;28;20567;-82
2024/02/01 02:07:40;;;;;;;8.45;5.85;;;;;;;;;;5077349;28;20191;-81
2024/02/01 02:10:07;;;;;;;16.15;8.98;;;;;;;;;;5077848;28;20708;-81
2024/02/01 02:12:33;;;;;;;12.25;9.00;;;;;;;;;;5078168;28;20181;-81
2024/02/01 02:15:00;;;;;;;13.53;9.27;;;;;;;;;;5075543;28;20188;-81
2024/02/01 02:17:26;;;;;;;14.38;9.10;;;;;;;;;;5076675;28;20911;-81
2024/02/01 02:19:53;;;;;;;11.57;9.82;;;;;;;;;;5076745;28;20540;-81
2024/02/01 02:22:20;;;;;;;12.27;10.05;;;;;;;;;;5077504;28;20198;-78
2024/02/01 02:24:46;;;;;;;10.65;9.10;;;;;;;;;;5076864;28;20264;-79
2024/02/01 02:27:12;;;;;;;11.77;9.38;;;;;;;;;;5076893;28;20184;-80
2024/02/01 02:29:38;;;;;;;16.08;10.90;;;;;;;;;;5077417;28;20683;-78
2024/02/01 02:32:04;;;;;;;17.30;12.15;;;;;;;;;;5077677;28;20566;-79
2024/02/01 02:34:30;;;;;;;16.52;11.65;;;;;;;;;;5075928;28;20703;-81
2024/02/01 02:36:56;;;;;;;17.70;11.83;;;;;;;;;;5076324;28;20234;-79
2024/02/01 02:39:22;;;;;;;16.43;11.43;;;;;;;;;;5074976;28;20494;-81
2024/02/01 02:41:48;;;;;;;20.03;12.57;;;;;;;;;;5076666;28;20501;-82
2024/02/01 02:44:14;;;;;;;16.83;12.60;;;;;;;;;;5076034;28;20435;-79
2024/02/01 02:46:40;;;;;;;13.40;10.60;;;;;;;;;;5076743;28;20399;-81
2024/02/01 02:49:08;;;;;;;15.82;11.60;;;;;;;;;;5076748;28;20173;-78
2024/02/01 02:51:34;;;;;;;17.35;11.18;;;;;;;;;;5076214;28;20171;-78
2024/02/01 02:54:00;;;;;;;15.57;11.25;;;;;;;;;;5076189;28;20215;-78
2024/02/01 02:56:26;;;;;;;14.23;10.30;;;;;;;;;;5075785;28;20653;-78
2024/02/01 02:58:52;;;;;;;15.45;9.75;;;;;;;;;;5076494;28;20535;-78
2024/02/01 03:01:18;;;;;;;15.20;10.70;;;;;;;;;;5076309;28;20263;-79
2024/02/01 03:03:44;;;;;;;16.97;11.40;;;;;;;;;;5075517;28;20442;-78
2024/02/01 03:06:11;;;;;;;16.38;11.57;;;;;;;;;;5076891;28;20415;-78
2024/02/01 03:08:40;;;;;;;16.15;12.20;;;;;;;;;;5075873;28;20216;-78
2024/02/01 03:11:12;;;;;;;15.90;12.85;;;;;;;;;;5076710;28;20206;-78
2024/02/01 03:13:42;;;;;;;19.92;13.50;;;;;;;;;;5075569;28;20185;-79
2024/02/01 03:16:17;;;;;;;18.05;13.10;;;;;;;;;;5076512;28;20177;-79
2024/02/01 03:18:44;;;;;;;17.65;12.45;;;;;;;;;;5076111;28;20642;-79
2024/02/01 03:21:11;;;;;;;16.65;12.35;;;;;;;;;;5075896;28;20181;-78
2024/02/01 03:23:37;;;;;;;16.83;12.45;;;;;;;;;;5075236;28;20229;-78
2024/02/01 03:26:04;;;;;;;15.80;10.93;;;;;;;;;;5075965;28;20175;-78
2024/02/01 03:28:30;;;;;;;16.17;11.88;;;;;;;;;;5075767;28;20267;-78
2024/02/01 03:30:56;;;;;;;13.10;11.25;;;;;;;;;;5076008;28;20709;-78
2024/02/01 03:33:22;;;;;;;17.25;12.60;;;;;;;;;;5075292;28;20234;-78
2024/02/01 03:35:49;;;;;;;14.25;11.60;;;;;;;;;;5076675;28;20188;-78
2024/02/01 03:38:15;;;;;;;16.50;12.05;;;;;;;;;;5071338;28;20204;-78
2024/02/01 03:40:42;;;;;;;14.02;11.77;;;;;;;;;;5089714;28;20264;-78
2024/02/01 03:43:11;;;;;;;14.38;11.15;;;;;;;;;;5088126;28;20165;-79
2024/02/01 03:45:37;;;;;;;15.25;10.93;;;;;;;;;;5056166;28;20189;-78
2024/02/01 03:48:03;;;;;;;17.97;12.23;;;;;;;;;;5056411;28;20215;-78
2024/02/01 03:50:29;;;;;;;16.67;12.20;;;;;;;;;;5070882;28;20965;-79
2024/02/01 03:52:55;;;;;;;17.67;12.80;;;;;;;;;;5076393;28;20181;-78
2024/02/01 03:55:21;;;;;;;20.02;13.38;;;;;;;;;;5074663;28;20965;-79
2024/02/01 03:57:47;;;;;;;16.00;13.98;;;;;;;;;;5075654;28;20668;-78
2024/02/01 04:00:30;;;;;;;14.27;12.43;;;;;;;;;;5076606;28;20199;-79
2024/02/01 04:02:56;;;;;;;16.85;12.25;;;;;;;;;;5077130;28;20180;-80
2024/02/01 04:05:24;;;;;;;17.45;12.50;;;;;;;;;;5076013;28;20209;-80
2024/02/01 04:07:50;;;;;;;18.42;12.20;;;;;;;;;;5077251;28;20698;-80
2024/02/01 04:10:16;;;;;;;10.70;8.67;;;;;;;;;;5058327;28;20180;-80
2024/02/01 04:12:42;;;;;;;13.43;12.03;;;;;;;;;;5075097;28;20407;-79
2024/02/01 04:15:08;;;;;;;14.15;11.73;;;;;;;;;;5075129;28;20427;-78
2024/02/01 04:17:34;;;;;;;15.23;11.35;;;;;;;;;;5074944;28;20600;-78
2024/02/01 04:20:00;;;;;;;16.07;12.70;;;;;;;;;;5056480;28;20239;-78
2024/02/01 04:22:26;;;;;;;14.30;12.00;;;;;;;;;;5055460;28;20412;-79
2024/02/01 04:24:51;;;;;;;13.20;11.13;;;;;;;;;;5068797;28;20810;-79
2024/02/01 04:27:18;;;;;;;18.60;11.83;;;;;;;;;;5075483;28;20794;-78
2024/02/01 04:29:44;;;;;;;16.58;11.23;;;;;;;;;;5076091;28;20469;-78
2024/02/01 04:32:10;;;;;;;14.05;11.77;;;;;;;;;;5075832;28;20230;-78
2024/02/01 04:34:38;;;;;;;15.67;11.27;;;;;;;;;;5074576;28;20645;-79
2024/02/01 04:37:11;;;;;;;16.00;11.90;;;;;;;;;;5075565;28;20465;-78
2024/02/01 04:39:37;;;;;;;15.15;13.05;;;;;;;;;;5079554;28;20253;-79
2024/02/01 04:42:15;;;;;;;15.83;11.20;;;;;;;;;;5079588;28;20177;-79
2024/02/01 04:44:46;;;;;;;13.38;10.55;;;;;;;;;;5078041;28;20433;-80
2024/02/01 04:47:12;;;;;;;14.25;11.13;;;;;;;;;;5079286;28;20215;-79
2024/02/01 04:49:38;;;;;;;14.48;11.50;;;;;;;;;;5079364;28;20328;-79
2024/02/01 04:52:05;;;;;;;14.50;10.65;;;;;;;;;;5079771;28;20195;-79
2024/02/01 04:54:34;;;;;;;12.57;10.32;;;;;;;;;;5077943;28;20267;-79
2024/02/01 04:57:00;;;;;;;14.20;11.55;;;;;;;;;;5078933;28;20215;-79
2024/02/01 04:59:26;;;;;;;12.60;9.95;;;;;;;;;;5078598;28;20200;-79
2024/02/01 05:01:52;;;;;;;12.97;10.53;;;;;;;;;;5078757;28;20246;-79
2024/02/01 05:04:18;;;;;;;14.53;10.57;;;;;;;;;;5078056;28;20491;-79
2024/02/01 05:06:44;;;;;;;14.60;10.75;;;;;;;;;;5077579;28;20532;-79
2024/02/01 05:09:27;;;;;;;13.53;10.27;;;;;;;;;;5078844;28;20270;-79
2024/02/01 05:11:53;;;;;;;15.50;11.45;;;;;;;;;;5079202;28;20457;-80
2024/02/01 05:14:19;;;;;;;14.05;10.73;;;;;;;;;;5078259;28;20192;-79
2024/02/01 05:16:47;;;;;;;12.38;11.07;;;;;;;;;;5078128;28;20188;-80
2024/02/01 05:19:13;;;;;;;15.02;11.00;;;;;;;;;;5078016;28;20242;-79
2024/02/01 05:21:39;;;;;;;15.48;12.60;;;;;;;;;;5078319;28;20259;-78
2024/02/01 05:24:08;;;;;;;14.73;11.20;;;;;;;;;;5077902;28;20226;-78
2024/02/01 05:26:37;;;;;;;15.85;12.30;;;;;;;;;;5078538;28;20905;-79
2024/02/01 05:29:03;;;;;;;21.33;14.00;;;;;;;;;;5078972;28;20227;-79
2024/02/01 05:31:30;;;;;;;13.68;12.23;;;;;;;;;;5078134;28;20266;-79
2024/02/01 05:33:56;;;;;;;16.63;13.23;;;;;;;;;;5077948;28;20231;-79
2024/02/01 05:36:22;;;;;;;23.40;14.13;;;;;;;;;;5078253;28;20407;-79
2024/02/01 05:38:48;;;;;;;13.23;11.93;;;;;;;;;;5078046;28;20518;-79
2024/02/01 05:41:14;;;;;;;17.13;12.67;;;;;;;;;;5078522;28;20407;-79
2024/02/01 05:43:40;;;;;;;14.97;12.13;;;;;;;;;;5052881;28;20457;-79
2024/02/01 05:46:15;;;;;;;20.15;13.90;;;;;;;;;;5060402;28;20519;-79
2024/02/01 05:48:41;;;;;;;17.33;13.98;;;;;;;;;;5058134;28;20537;-79
2024/02/01 05:51:07;;;;;;;19.92;16.17;;;;;;;;;;5067532;28;20189;-79
2024/02/01 05:53:33;;;;;;;22.92;15.82;;;;;;;;;;5076997;28;20177;-79
2024/02/01 05:55:59;;;;;;;21.58;15.63;;;;;;;;;;5077704;28;20193;-79
2024/02/01 05:58:28;;;;;;;22.23;15.53;;;;;;;;;;5077886;28;20291;-80
2024/02/01 06:00:54;;;;;;;24.58;15.55;;;;;;;;;;5077686;28;20419;-79
2024/02/01 06:03:20;;;;;;;26.03;16.90;;;;;;;;;;5077314;28;20192;-79
2024/02/01 06:05:48;;;;;;;26.65;17.83;;;;;;;;;;5076713;28;20505;-79
2024/02/01 06:08:19;;;;;;;27.15;17.80;;;;;;;;;;5077683;28;20197;-79
2024/02/01 06:10:45;;;;;;;25.88;15.93;;;;;;;;;;5077036;28;20203;-79
2024/02/01 06:13:11;;;;;;;27.65;16.63;;;;;;;;;;5076653;28;20271;-79
2024/02/01 06:15:37;;;;;;;27.70;17.98;;;;;;;;;;5076796;28;20268;-79
2024/02/01 06:18:04;;;;;;;23.58;18.10;;;;;;;;;;5077131;28;20205;-79
2024/02/01 06:20:30;;;;;;;26.23;19.23;;;;;;;;;;5076920;28;20309;-79
2024/02/01 06:22:59;;;;;;;27.05;18.42;;;;;;;;;;5076732;28;20196;-79
2024/02/01 06:25:26;;;;;;;28.77;18.45;;;;;;;;;;5077397;28;20177;-79
2024/02/01 06:27:52;;;;;;;31.20;18.95;;;;;;;;;;5076844;28;20179;-79
2024/02/01 06:30:18;;;;;;;26.80;18.90;;;;;;;;;;5077281;28;20185;-79
2024/02/01 06:32:45;;;;;;;31.25;22.48;;;;;;;;;;5075974;28;20450;-79
2024/02/01 06:35:16;;;;;;;35.78;20.85;;;;;;;;;;5058809;28;20216;-79
2024/02/01 06:37:42;;;;;;;32.83;20.20;;;;;;;;;;5076564;28;20718;-79
2024/02/01 06:45:47;;;;;;;34.63;20.60;;;;;;;;;;5097093;28;20694;-79
2024/02/01 06:48:13;;;;;;;37.92;22.98;;;;;;;;;;5097263;28;20174;-79
2024/02/01 06:50:57;;;;;;;40.63;22.75;;;;;;;;;;5097100;28;20203;-79
2024/02/01 06:53:23;;;;;;;35.63;21.73;;;;;;;;;;5088240;28;20273;-79
2024/02/01 06:56:18;;;;;;;38.38;21.98;;;;;;;;;;5059013;28;20221;-79
2024/02/01 06:58:47;;;;;;;34.40;21.20;;;;;;;;;;5076047;28;20283;-79
2024/02/01 07:01:24;;;;;;;35.92;23.70;;;;;;;;;;5076402;28;20179;-79
2024/02/01 07:06:35;;;;;;;48.10;24.23;;;;;;;;;;5076289;28;20191;-79
2024/02/01 07:09:27;;;;;;;39.38;23.00;;;;;;;;;;5075980;28;20204;-79
2024/02/01 07:12:09;;;;;;;41.53;22.85;;;;;;;;;;5075590;28;20188;-79
2024/02/01 07:14:36;;;;;;;36.85;21.40;;;;;;;;;;5077134;28;20223;-79
2024/02/01 07:19:53;;;;;;;32.25;20.38;;;;;;;;;;5060137;28;20270;-79
2024/02/01 07:25:10;;;;;;;39.58;21.33;;;;;;;;;;5075639;28;20183;-79
2024/02/01 07:57:55;;;;;;;27.45;15.25;;;;;;;;;;5077466;28;20563;-80
2024/02/01 08:00:28;;;;;;;22.83;12.70;;;;;;;;;;5077817;28;20164;-81
2024/02/01 08:03:00;;;;;;;27.45;12.85;;;;;;;;;;5074991;28;20182;-81
2024/02/01 08:08:15;;;;;;;19.27;11.38;;;;;;;;;;5075834;28;20196;-79
2024/02/01 08:10:42;;;;;;;20.27;9.90;;;;;;;;;;5073759;28;20266;-79
2024/02/01 08:13:08;;;;;;;35.75;9.02;;;;;;;;;;5076447;28;20184;-78
2024/02/01 08:15:38;;;;;;;26.90;10.07;;;;;;;;;;5078729;28;20180;-79
2024/02/01 08:18:08;;;;;;;28.52;8.05;;;;;;;;;;5079925;28;20333;-78
2024/02/01 08:20:35;;;;;;;16.73;6.80;;;;;;;;;;5078731;28;20240;-79
2024/02/01 08:23:01;;;;;;;27.00;7.13;;;;;;;;;;5078890;28;20649;-78
2024/02/01 08:25:27;;;;;;;26.20;5.65;;;;;;;;;;5079648;28;20231;-79
2024/02/01 08:27:53;;;;;;;11.53;4.80;;;;;;;;;;5079458;28;20185;-78
2024/02/01 08:30:23;;;;;;;21.27;4.50;;;;;;;;;;5079296;28;20395;-78
2024/02/01 08:32:49;;;;;;;18.70;6.15;;;;;;;;;;5079133;28;20181;-78
2024/02/01 08:35:16;;;;;;;21.20;5.43;;;;;;;;;;5079464;28;20176;-78
2024/02/01 08:37:43;;;;;;;21.75;4.43;;;;;;;;;;5078704;28;20176;-78
2024/02/01 08:40:16;;;;;;;19.83;5.38;;;;;;;;;;5079054;28;20226;-78
2024/02/01 08:42:45;;;;;;;24.48;4.30;;;;;;;;;;5078561;28;20173;-78
2024/02/01 08:45:14;;;;;;;15.73;3.60;;;;;;;;;;5079031;28;20169;-78
2024/02/01 08:47:41;;;;;;;28.15;3.88;;;;;;;;;;5078633;28;20643;-79
2024/02/01 08:50:09;;;;;;;27.30;4.38;;;;;;;;;;5078550;28;20683;-80
2024/02/01 08:52:36;;;;;;;22.52;5.47;;;;;;;;;;5082788;28;20273;-81
2024/02/01 08:55:09;;;;;;;22.15;4.70;;;;;;;;;;5079577;28;20644;-80
2024/02/01 08:57:35;;;;;;;28.85;4.45;;;;;;;;;;5078752;28;20248;-80
2024/02/01 09:00:01;;;;;;;18.33;4.07;;;;;;;;;;5079075;28;20177;-79
2024/02/01 09:02:27;;;;;;;16.13;4.93;;;;;;;;;;5078690;28;20415;-79
2024/02/01 09:04:53;;;;;;;19.20;4.00;;;;;;;;;;5060681;28;20440;-78
2024/02/01 09:07:19;;;;;;;13.15;3.20;;;;;;;;;;5078836;28;20452;-77
2024/02/01 09:09:45;;;;;;;17.40;3.63;;;;;;;;;;5078117;28;20200;-77
2024/02/01 09:12:16;;;;;;;18.63;3.63;;;;;;;;;;5078555;28;20490;-78
2024/02/01 09:14:42;;;;;;;22.75;3.53;;;;;;;;;;5078916;28;20411;-78
2024/02/01 09:17:08;;;;;;;21.88;3.58;;;;;;;;;;5078850;28;20197;-77
2024/02/01 09:19:34;;;;;;;13.50;3.93;;;;;;;;;;5078658;28;20282;-78
2024/02/01 09:22:02;;;;;;;17.10;3.80;;;;;;;;;;5078332;28;20413;-77
2024/02/01 09:24:29;;;;;;;17.88;3.65;;;;;;;;;;5078111;28;20490;-77
2024/02/01 09:26:54;;;;;;;19.63;4.95;;;;;;;;;;5078557;28;20224;-77
2024/02/01 09:29:20;;;;;;;20.10;4.17;;;;;;;;;;5078741;28;20184;-77
2024/02/01 09:31:46;;;;;;;35.83;3.67;;;;;;;;;;5078261;28;20400;-77
2024/02/01 09:34:16;;;;;;;22.27;3.67;;;;;;;;;;5079493;28;20971;-77
2024/02/01 09:36:42;;;;;;;16.27;3.72;;;;;;;;;;5078964;28;20500;-77
2024/02/01 09:39:11;;;;;;;23.55;4.63;;;;;;;;;;5082464;28;20644;-77
2024/02/01 09:41:37;;;;;;;13.95;3.75;;;;;;;;;;5079004;28;20266;-77
2024/02/01 09:44:06;;;;;;;17.17;5.07;;;;;;;;;;5078866;28;20666;-77
2024/02/01 09:46:34;;;;;;;18.30;3.97;;;;;;;;;;5079199;28;20412;-76
2024/02/01 09:49:01;;;;;;;18.25;4.82;;;;;;;;;;5078677;28;20192;-77
2024/02/01 09:51:27;;;;;;;15.70;4.45;;;;;;;;;;5078224;28;20613;-77
2024/02/01 09:53:53;;;;;;;12.70;3.50;;;;;;;;;;5078252;28;20179;-77
2024/02/01 09:56:25;;;;;;;7.83;2.70;;;;;;;;;;5079149;28;20751;-77
2024/02/01 09:58:51;;;;;;;16.38;3.97;;;;;;;;;;5078103;28;20942;-77
2024/02/01 10:01:17;;;;;;;12.80;3.15;;;;;;;;;;5078743;28;20196;-77
2024/02/01 10:03:43;;;;;;;11.73;2.20;;;;;;;;;;5077614;28;20173;-77
2024/02/01 10:06:09;;;;;;;12.45;2.42;;;;;;;;;;5078204;28;20640;-77
2024/02/01 10:08:36;;;;;;;13.80;3.20;;;;;;;;;;5078176;28;20276;-77
2024/02/01 10:11:03;;;;;;;17.90;3.85;;;;;;;;;;5077939;28;20185;-78
2024/02/01 10:13:32;;;;;;;13.38;3.30;;;;;;;;;;5076910;28;20172;-77
2024/02/01 10:16:00;;;;;;;17.05;3.03;;;;;;;;;;5060067;28;20177;-77
2024/02/01 10:18:26;;;;;;;14.95;3.45;;;;;;;;;;5058234;28;20526;-77
2024/02/01 10:20:59;;;;;;;15.75;3.58;;;;;;;;;;5057258;28;20219;-77
2024/02/01 10:23:25;;;;;;;18.67;2.78;;;;;;;;;;5057839;28;20158;-77
2024/02/01 10:25:55;;;;;;;17.38;3.03;;;;;;;;;;5057980;28;20549;-77
2024/02/01 10:28:33;;;;;;;8.77;3.15;;;;;;;;;;5058737;28;20178;-77
2024/02/01 10:31:00;;;;;;;12.93;4.15;;;;;;;;;;5058079;28;20204;-77
2024/02/01 10:33:29;;;;;;;13.60;3.42;;;;;;;;;;5057925;28;20173;-77
2024/02/01 10:35:59;;;;;;;9.02;2.40;;;;;;;;;;5057185;28;20245;-77
2024/02/01 10:38:25;;;;;;;10.85;2.85;;;;;;;;;;5060250;28;20293;-77
2024/02/01 10:40:52;;;;;;;9.88;2.70;;;;;;;;;;5076503;28;20633;-77
2024/02/01 10:43:22;;;;;;;12.77;2.45;;;;;;;;;;5077864;28;20173;-77
2024/02/01 10:45:53;;;;;;;12.57;3.15;;;;;;;;;;5077494;28;20185;-77
2024/02/01 10:48:22;;;;;;;13.60;3.42;;;;;;;;;;5077078;28;20172;-77
2024/02/01 10:50:49;;;;;;;9.25;2.97;;;;;;;;;;5076803;28;20190;-77
2024/02/01 10:53:15;;;;;;;12.45;3.25;;;;;;;;;;5076649;28;20191;-77
2024/02/01 10:55:42;;;;;;;15.75;3.80;;;;;;;;;;5077514;28;20176;-77
2024/02/01 10:58:12;;;;;;;10.43;2.95;;;;;;;;;;5076958;28;20283;-77
2024/02/01 11:00:39;;;;;;;15.60;3.17;;;;;;;;;;5076395;28;20585;-77
2024/02/01 11:03:08;;;;;;;12.20;3.28;;;;;;;;;;5076042;28;20200;-78
2024/02/01 11:05:36;;;;;;;13.63;3.17;;;;;;;;;;5076454;28;20176;-79
2024/02/01 11:08:02;;;;;;;11.63;3.08;;;;;;;;;;5076275;28;20203;-78
2024/02/01 11:10:28;;;;;;;18.98;3.72;;;;;;;;;;5076723;28;20586;-77
2024/02/01 11:12:55;;;;;;;23.48;4.35;;;;;;;;;;5076065;28;20183;-78
2024/02/01 11:15:25;;;;;;;12.95;3.53;;;;;;;;;;5076353;28;20177;-77
2024/02/01 11:17:51;;;;;;;10.45;2.50;;;;;;;;;;5076349;28;20169;-77
2024/02/01 11:20:25;;;;;;;13.15;5.50;;;;;;;;;;5076772;28;20217;-77
2024/02/01 11:22:57;;;;;;;18.67;5.00;;;;;;;;;;5076446;28;20177;-77
2024/02/01 11:25:27;;;;;;;16.58;3.17;;;;;;;;;;5039240;28;20649;-77
2024/02/01 11:27:53;;;;;;;14.45;3.85;;;;;;;;;;5069466;28;20197;-78
2024/02/01 11:30:28;;;;;;;14.73;3.10;;;;;;;;;;5058679;28;20234;-77
2024/02/01 11:32:55;;;;;;;10.77;3.40;;;;;;;;;;5076036;28;20648;-78
2024/02/01 11:35:25;;;;;;;15.38;3.15;;;;;;;;;;5076479;28;20709;-77
2024/02/01 11:37:54;;;;;;;14.55;5.82;;;;;;;;;;5075695;28;20192;-78
2024/02/01 11:40:20;;;;;;;15.40;3.20;;;;;;;;;;5075702;28;20236;-77
2024/02/01 11:42:46;;;;;;;14.80;2.90;;;;;;;;;;5077072;28;20564;-79
2024/02/01 11:45:15;;;;;;;16.00;3.37;;;;;;;;;;5076217;28;20408;-77
2024/02/01 11:47:42;;;;;;;17.48;6.63;;;;;;;;;;5075779;28;20898;-78
2024/02/01 11:50:08;;;;;;;12.70;3.33;;;;;;;;;;5075475;28;20582;-78
2024/02/01 11:52:47;;;;;;;8.32;3.08;;;;;;;;;;5076082;28;20185;-78
2024/02/01 11:55:15;;;;;;;16.27;3.50;;;;;;;;;;5076222;28;20628;-78
2024/02/01 11:57:47;;;;;;;15.77;3.10;;;;;;;;;;5075930;28;20187;-78
2024/02/01 12:00:16;;;;;;;12.57;3.63;;;;;;;;;;5058394;28;20177;-78
2024/02/01 12:02:45;;;;;;;16.23;3.05;;;;;;;;;;5076148;28;20204;-78
2024/02/01 12:05:12;;;;;;;14.63;3.80;;;;;;;;;;5058178;28;20184;-78
2024/02/01 12:07:38;;;;;;;10.77;3.20;;;;;;;;;;5076188;28;20181;-78
2024/02/01 12:10:11;;;;;;;15.23;4.40;;;;;;;;;;5075951;28;20177;-78
2024/02/01 12:12:37;;;;;;;12.23;3.65;;;;;;;;;;5075376;28;20898;-79
2024/02/01 12:15:04;;;;;;;9.38;2.55;;;;;;;;;;5075425;28;20200;-78
2024/02/01 12:17:45;;;;;;;17.63;3.20;;;;;;;;;;5076390;28;20192;-78
2024/02/01 12:20:18;;;;;;;17.80;3.63;;;;;;;;;;5075565;28;20963;-78
2024/02/01 12:22:48;;;;;;;10.43;2.58;;;;;;;;;;5075744;28;20407;-78
2024/02/01 12:25:15;;;;;;;17.73;3.08;;;;;;;;;;5075870;28;20271;-78
2024/02/01 12:27:45;;;;;;;12.43;3.30;;;;;;;;;;5075535;28;20185;-78
2024/02/01 12:30:14;;;;;;;13.25;3.03;;;;;;;;;;5075406;28;20173;-78
2024/02/01 12:32:46;;;;;;;9.52;3.05;;;;;;;;;;5075397;28;20645;-78
2024/02/01 12:35:17;;;;;;;15.73;3.00;;;;;;;;;;5072705;28;20260;-77
2024/02/01 12:37:44;;;;;;;11.60;3.15;;;;;;;;;;5061989;28;20223;-78
2024/02/01 12:40:11;;;;;;;12.98;2.67;;;;;;;;;;5073935;28;20232;-77
2024/02/01 12:42:41;;;;;;;11.38;2.33;;;;;;;;;;5075604;28;20538;-77
2024/02/01 12:45:08;;;;;;;9.82;2.60;;;;;;;;;;5075677;28;20242;-78
2024/02/01 12:47:41;;;;;;;17.23;3.25;;;;;;;;;;5075905;28;20234;-77
2024/02/01 12:50:08;;;;;;;9.60;2.85;;;;;;;;;;5075434;28;20197;-78
2024/02/01 12:52:34;;;;;;;9.88;3.17;;;;;;;;;;5075519;28;20228;-77
2024/02/01 12:55:01;;;;;;;14.88;3.00;;;;;;;;;;5075602;28;20177;-78
2024/02/01 12:57:27;;;;;;;8.02;2.53;;;;;;;;;;5075264;28;20180;-77
2024/02/01 12:59:54;;;;;;;18.20;3.65;;;;;;;;;;5077721;28;20212;-77
2024/02/01 13:02:20;;;;;;;16.95;3.15;;;;;;;;;;5079325;28;20280;-77
2024/02/01 13:04:46;;;;;;;14.70;3.00;;;;;;;;;;5079257;28;20165;-79
2024/02/01 13:07:13;;;;;;;9.63;2.78;;;;;;;;;;5079330;28;20538;-78
2024/02/01 13:09:41;;;;;;;11.70;2.70;;;;;;;;;;5079163;28;20189;-77
2024/02/01 13:12:21;;;;;;;11.27;2.60;;;;;;;;;;5078573;28;20551;-80
2024/02/01 13:14:57;;;;;;;13.25;3.33;;;;;;;;;;5078802;28;20189;-77
2024/02/01 13:17:24;;;;;;;10.65;2.72;;;;;;;;;;5079353;28;20698;-78
2024/02/01 13:19:50;;;;;;;12.45;3.03;;;;;;;;;;5079141;28;20231;-79
2024/02/01 13:22:16;;;;;;;14.60;2.47;;;;;;;;;;5078526;28;20176;-78
2024/02/01 13:24:45;;;;;;;10.60;3.28;;;;;;;;;;5078609;28;20173;-77
2024/02/01 13:27:11;;;;;;;15.68;3.08;;;;;;;;;;5078413;28;20192;-77
2024/02/01 13:29:37;;;;;;;17.35;3.00;;;;;;;;;;5079448;28;20271;-77
2024/02/01 13:32:08;;;;;;;11.23;2.50;;;;;;;;;;5078615;28;20208;-77
2024/02/01 13:34:37;;;;;;;11.85;2.80;;;;;;;;;;5078802;28;20187;-77
2024/02/01 13:37:05;;;;;;;19.08;3.75;;;;;;;;;;5078097;28;20181;-77
2024/02/01 13:39:33;;;;;;;10.43;2.35;;;;;;;;;;5078627;28;20326;-78
2024/02/01 13:42:02;;;;;;;9.43;2.63;;;;;;;;;;5078715;28;20231;-78
2024/02/01 13:44:28;;;;;;;16.27;2.97;;;;;;;;;;5079574;28;20227;-77
2024/02/01 13:46:54;;;;;;;17.95;3.50;;;;;;;;;;5078475;28;20216;-78
2024/02/01 13:49:20;;;;;;;12.68;3.58;;;;;;;;;;5078596;28;20536;-77
2024/02/01 13:51:46;;;;;;;12.98;2.70;;;;;;;;;;5078288;28;20518;-77
2024/02/01 13:54:12;;;;;;;10.05;2.42;;;;;;;;;;5077953;28;20265;-77
2024/02/01 13:56:38;;;;;;;16.10;3.10;;;;;;;;;;5078591;28;20256;-77
2024/02/01 13:59:05;;;;;;;11.48;2.55;;;;;;;;;;5077649;28;20512;-80
2024/02/01 14:01:31;;;;;;;9.15;2.60;;;;;;;;;;5077785;28;20173;-79
2024/02/01 14:03:58;;;;;;;10.10;2.58;;;;;;;;;;5076342;28;20183;-80
2024/02/01 14:06:24;;;;;;;6.57;2.15;;;;;;;;;;5078067;28;20185;-79
2024/02/01 14:08:50;;;;;;;7.32;1.95;;;;;;;;;;5078166;28;20552;-79
2024/02/01 14:11:17;;;;;;;14.25;2.97;;;;;;;;;;5064545;28;20177;-80
2024/02/01 14:13:43;;;;;;;7.53;2.08;;;;;;;;;;5078051;28;20573;-80
2024/02/01 14:16:09;;;;;;;14.50;3.60;;;;;;;;;;5077992;28;20173;-80
2024/02/01 14:18:35;;;;;;;6.32;1.90;;;;;;;;;;5077045;28;20459;-80
2024/02/01 14:21:02;;;;;;;12.30;2.40;;;;;;;;;;5077702;28;20173;-80
2024/02/01 14:23:30;;;;;;;12.63;2.70;;;;;;;;;;5059581;28;20177;-78
2024/02/01 14:25:57;;;;;;;10.90;2.55;;;;;;;;;;5077048;28;20204;-78
2024/02/01 14:28:23;;;;;;;13.93;2.65;;;;;;;;;;5077281;28;20255;-77
2024/02/01 14:30:49;;;;;;;10.68;2.78;;;;;;;;;;5076920;28;20181;-77
2024/02/01 14:33:15;;;;;;;13.27;2.10;;;;;;;;;;5077599;28;20188;-77
2024/02/01 14:35:41;;;;;;;10.43;2.42;;;;;;;;;;5077573;28;20577;-77
2024/02/01 14:38:07;;;;;;;17.07;2.80;;;;;;;;;;5076439;28;20216;-78
2024/02/01 14:40:33;;;;;;;14.73;3.28;;;;;;;;;;5078042;28;20411;-77
2024/02/01 14:42:59;;;;;;;11.67;2.40;;;;;;;;;;5076396;28;20219;-78
2024/02/01 14:45:25;;;;;;;10.57;2.75;;;;;;;;;;5076776;28;20472;-77
2024/02/01 14:47:51;;;;;;;7.73;2.10;;;;;;;;;;5076617;28;20172;-77
2024/02/01 14:50:19;;;;;;;18.77;3.67;;;;;;;;;;5076850;28;20449;-78
2024/02/01 14:52:45;;;;;;;7.47;2.70;;;;;;;;;;5076842;28;20768;-78
2024/02/01 14:55:12;;;;;;;8.40;2.33;;;;;;;;;;5076703;28;20211;-78
2024/02/01 14:57:38;;;;;;;15.30;2.58;;;;;;;;;;5076759;28;20531;-78
2024/02/01 15:00:07;;;;;;;11.07;2.53;;;;;;;;;;5076600;28;20561;-78
2024/02/01 15:02:33;;;;;;;14.77;4.20;;;;;;;;;;5076437;28;20637;-78
2024/02/01 15:04:59;;;;;;;15.93;3.63;;;;;;;;;;5041951;28;20207;-79
2024/02/01 15:07:25;;;;;;;19.38;3.70;;;;;;;;;;5076288;28;20177;-78
2024/02/01 15:09:54;;;;;;;14.10;3.88;;;;;;;;;;5076033;28;20192;-78
2024/02/01 15:12:24;;;;;;;13.45;3.55;;;;;;;;;;5076502;28;20188;-79
2024/02/01 15:14:50;;;;;;;8.70;3.15;;;;;;;;;;5056188;28;20193;-78
2024/02/01 15:17:16;;;;;;;8.10;2.75;;;;;;;;;;5055912;28;20270;-78